sensor_id;sensor_type;location;lat;lon;timestamp;pressure;altitude;pressure_sealevel;temperature;humidity
45541;BME280;31265;49.680;8.608;2023-12-20T00:00:04;100734.41;;;4.34;100.00
45541;BME280;31265;49.680;8.608;2023-12-20T00:02:32;100726.91;;;4.35;100.00
45541;BME280;31265;49.680;8.608;2023-12-20T00:05:05;100726.66;;;4.32;100.00
45541;BME280;31265;49.680;8.608;2023-12-20T00:07:36;100720.41;;;4.32;100.00
45541;BME280;31265;49.680;8.608;2023-12-20T00:10:05;100718.91;;;4.37;100.00
45541;BME280;31265;49.680;8.608;2023-12-20T00:12:34;100711.88;;;4.41;100.00
45541;BME280;31265;49.680;8.608;2023-12-20T00:15:03;100708.88;;;4.39;100.00
45541;BME280;31265;49.680;8.608;2023-12-20T00:17:31;100713.44;;;4.31;100.00
45541;BME280;31265;49.680;8.608;2023-12-20T00:19:59;100712.69;;;4.30;100.00
45541;BME280;31265;49.680;8.608;2023-12-20T00:22:29;100705.69;;;4.29;100.00
45541;BME280;31265;49.680;8.608;2023-12-20T00:24:59;100704.69;;;4.32;100.00
45541;BME280;31265;49.680;8.608;2023-12-20T00:27:27;100709.16;;;4.36;100.00
45541;BME280;31265;49.680;8.608;2023-12-20T00:29:55;100707.66;;;4.35;100.00
45541;BME280;31265;49.680;8.608;2023-12-20T00:32:24;100711.69;;;4.34;100.00
45541;BME280;31265;49.680;8.608;2023-12-20T00:34:53;100704.22;;;4.28;100.00
45541;BME280;31265;49.680;8.608;2023-12-20T00:37:21;100700.22;;;4.29;100.00
45541;BME280;31265;49.680;8.608;2023-12-20T00:39:51;100698.97;;;4.30;100.00
45541;BME280;31265;49.680;8.608;2023-12-20T00:42:19;100692.44;;;4.34;100.00
45541;BME280;31265;49.680;8.608;2023-12-20T00:44:47;100687.19;;;4.36;100.00
45541;BME280;31265;49.680;8.608;2023-12-20T00:47:17;100692.69;;;4.36;100.00
45541;BME280;31265;49.680;8.608;2023-12-20T00:49:46;100692.22;;;4.31;100.00
45541;BME280;31265;49.680;8.608;2023-12-20T00:52:14;100696.22;;;4.30;100.00
45541;BME280;31265;49.680;8.608;2023-12-20T00:54:44;100695.19;;;4.34;100.00
45541;BME280;31265;49.680;8.608;2023-12-20T00:57:14;100686.94;;;4.34;100.00
45541;BME280;31265;49.680;8.608;2023-12-20T00:59:43;100693.69;;;4.32;100.00
45541;BME280;31265;49.680;8.608;2023-12-20T01:02:12;100685.69;;;4.35;100.00
45541;BME280;31265;49.680;8.608;2023-12-20T01:04:40;100686.94;;;4.34;100.00
45541;BME280;31265;49.680;8.608;2023-12-20T01:07:09;100680.97;;;4.29;100.00
45541;BME280;31265;49.680;8.608;2023-12-20T01:09:37;100683.47;;;4.27;100.00
45541;BME280;31265;49.680;8.608;2023-12-20T01:12:06;100681.72;;;4.30;100.00
45541;BME280;31265;49.680;8.608;2023-12-20T01:14:35;100688.22;;;4.27;100.00
45541;BME280;31265;49.680;8.608;2023-12-20T01:17:04;100690.19;;;4.38;100.00
45541;BME280;31265;49.680;8.608;2023-12-20T01:19:32;100679.94;;;4.32;100.00
45541;BME280;31265;49.680;8.608;2023-12-20T01:22:01;100683.97;;;4.31;100.00
45541;BME280;31265;49.680;8.608;2023-12-20T01:24:29;100680.47;;;4.31;100.00
45541;BME280;31265;49.680;8.608;2023-12-20T01:26:57;100669.25;;;4.29;100.00
45541;BME280;31265;49.680;8.608;2023-12-20T01:29:25;100676.50;;;4.26;100.00
45541;BME280;31265;49.680;8.608;2023-12-20T01:31:55;100665.53;;;4.26;100.00
45541;BME280;31265;49.680;8.608;2023-12-20T01:34:23;100669.44;;;4.37;100.00
45541;BME280;31265;49.680;8.608;2023-12-20T01:36:52;100677.13;;;4.44;100.00
45541;BME280;31265;49.680;8.608;2023-12-20T01:39:20;100683.22;;;4.31;100.00
45541;BME280;31265;49.680;8.608;2023-12-20T01:41:55;100685.97;;;4.31;100.00
45541;BME280;31265;49.680;8.608;2023-12-20T01:44:24;100690.41;;;4.40;100.00
45541;BME280;31265;49.680;8.608;2023-12-20T01:46:54;100688.66;;;4.37;100.00
45541;BME280;31265;49.680;8.608;2023-12-20T01:49:24;100681.47;;;4.34;100.00
45541;BME280;31265;49.680;8.608;2023-12-20T01:51:53;100680.44;;;4.37;100.00
45541;BME280;31265;49.680;8.608;2023-12-20T01:54:22;100686.66;;;4.37;100.00
45541;BME280;31265;49.680;8.608;2023-12-20T01:56:50;100682.94;;;4.35;100.00
45541;BME280;31265;49.680;8.608;2023-12-20T01:59:20;100682.44;;;4.36;100.00
45541;BME280;31265;49.680;8.608;2023-12-20T02:01:49;100668.19;;;4.38;100.00
45541;BME280;31265;49.680;8.608;2023-12-20T02:04:17;100675.91;;;4.39;100.00
45541;BME280;31265;49.680;8.608;2023-12-20T02:06:48;100685.19;;;4.36;100.00
45541;BME280;31265;49.680;8.608;2023-12-20T02:09:20;100681.16;;;4.37;100.00
45541;BME280;31265;49.680;8.608;2023-12-20T02:11:49;100683.41;;;4.39;100.00
45541;BME280;31265;49.680;8.608;2023-12-20T02:14:17;100685.44;;;4.32;100.00
45541;BME280;31265;49.680;8.608;2023-12-20T02:16:46;100692.69;;;4.36;100.00
45541;BME280;31265;49.680;8.608;2023-12-20T02:19:14;100689.69;;;4.34;100.00
45541;BME280;31265;49.680;8.608;2023-12-20T02:21:45;100682.94;;;4.35;100.00
45541;BME280;31265;49.680;8.608;2023-12-20T02:24:13;100671.50;;;4.30;100.00
45541;BME280;31265;49.680;8.608;2023-12-20T02:26:42;100674.25;;;4.30;100.00
45541;BME280;31265;49.680;8.608;2023-12-20T02:29:13;100683.97;;;4.31;100.00
45541;BME280;31265;49.680;8.608;2023-12-20T02:31:41;100668.75;;;4.30;100.00
45541;BME280;31265;49.680;8.608;2023-12-20T02:34:10;100676.75;;;4.28;100.00
45541;BME280;31265;49.680;8.608;2023-12-20T02:36:38;100680.72;;;4.33;100.00
45541;BME280;31265;49.680;8.608;2023-12-20T02:39:10;100682.69;;;4.32;100.00
45541;BME280;31265;49.680;8.608;2023-12-20T02:41:38;100674.97;;;4.31;100.00
45541;BME280;31265;49.680;8.608;2023-12-20T02:44:07;100666.00;;;4.30;100.00
45541;BME280;31265;49.680;8.608;2023-12-20T02:46:35;100667.25;;;4.29;100.00
45541;BME280;31265;49.680;8.608;2023-12-20T02:49:04;100672.72;;;4.29;100.00
45541;BME280;31265;49.680;8.608;2023-12-20T02:51:32;100667.25;;;4.29;100.00
45541;BME280;31265;49.680;8.608;2023-12-20T02:54:00;100657.75;;;4.30;100.00
45541;BME280;31265;49.680;8.608;2023-12-20T02:56:30;100655.22;;;4.32;100.00
45541;BME280;31265;49.680;8.608;2023-12-20T02:58:59;100672.22;;;4.31;100.00
45541;BME280;31265;49.680;8.608;2023-12-20T03:01:27;100669.50;;;4.31;100.00
45541;BME280;31265;49.680;8.608;2023-12-20T03:03:56;100673.47;;;4.30;100.00
45541;BME280;31265;49.680;8.608;2023-12-20T03:06:25;100685.22;;;4.30;100.00
45541;BME280;31265;49.680;8.608;2023-12-20T03:08:53;100669.50;;;4.31;100.00
45541;BME280;31265;49.680;8.608;2023-12-20T03:11:21;100659.53;;;4.28;100.00
45541;BME280;31265;49.680;8.608;2023-12-20T03:13:51;100660.72;;;4.32;100.00
45541;BME280;31265;49.680;8.608;2023-12-20T03:16:21;100664.97;;;4.34;100.00
45541;BME280;31265;49.680;8.608;2023-12-20T03:18:49;100673.47;;;4.36;100.00
45541;BME280;31265;49.680;8.608;2023-12-20T03:21:17;100682.19;;;4.34;100.00
45541;BME280;31265;49.680;8.608;2023-12-20T03:23:46;100684.19;;;4.34;100.00
45541;BME280;31265;49.680;8.608;2023-12-20T03:26:14;100681.22;;;4.31;100.00
45541;BME280;31265;49.680;8.608;2023-12-20T03:28:42;100683.72;;;4.29;100.00
45541;BME280;31265;49.680;8.608;2023-12-20T03:31:12;100687.50;;;4.26;100.00
45541;BME280;31265;49.680;8.608;2023-12-20T03:33:41;100690.94;;;4.32;100.00
45541;BME280;31265;49.680;8.608;2023-12-20T03:36:09;100685.94;;;4.37;100.00
45541;BME280;31265;49.680;8.608;2023-12-20T03:38:37;100688.19;;;4.32;100.00
45541;BME280;31265;49.680;8.608;2023-12-20T03:41:07;100688.47;;;4.29;100.00
45541;BME280;31265;49.680;8.608;2023-12-20T03:43:35;100675.97;;;4.34;100.00
45541;BME280;31265;49.680;8.608;2023-12-20T03:46:03;100679.94;;;4.32;100.00
45541;BME280;31265;49.680;8.608;2023-12-20T03:48:33;100685.97;;;4.31;100.00
45541;BME280;31265;49.680;8.608;2023-12-20T03:51:02;100690.47;;;4.28;100.00
45541;BME280;31265;49.680;8.608;2023-12-20T03:53:30;100687.44;;;4.32;100.00
45541;BME280;31265;49.680;8.608;2023-12-20T03:55:59;100690.72;;;4.30;100.00
45541;BME280;31265;49.680;8.608;2023-12-20T03:58:27;100683.47;;;4.33;100.00
45541;BME280;31265;49.680;8.608;2023-12-20T04:00:55;100691.19;;;4.35;100.00
45541;BME280;31265;49.680;8.608;2023-12-20T04:03:24;100689.94;;;4.36;100.00
45541;BME280;31265;49.680;8.608;2023-12-20T04:05:53;100688.41;;;4.40;100.00
45541;BME280;31265;49.680;8.608;2023-12-20T04:08:22;100692.44;;;4.34;100.00
45541;BME280;31265;49.680;8.608;2023-12-20T04:10:51;100692.44;;;4.34;100.00
45541;BME280;31265;49.680;8.608;2023-12-20T04:13:19;100687.97;;;4.30;100.00
45541;BME280;31265;49.680;8.608;2023-12-20T04:15:47;100690.72;;;4.30;100.00
45541;BME280;31265;49.680;8.608;2023-12-20T04:18:18;100704.69;;;4.32;100.00
45541;BME280;31265;49.680;8.608;2023-12-20T04:20:46;100700.22;;;4.29;100.00
45541;BME280;31265;49.680;8.608;2023-12-20T04:23:17;100702.16;;;4.35;100.00
45541;BME280;31265;49.680;8.608;2023-12-20T04:25:46;100700.69;;;4.34;100.00
45541;BME280;31265;49.680;8.608;2023-12-20T04:28:14;100701.72;;;4.30;100.00
45541;BME280;31265;49.680;8.608;2023-12-20T04:30:43;100704.69;;;4.32;100.00
45541;BME280;31265;49.680;8.608;2023-12-20T04:33:11;100702.94;;;4.29;100.00
45541;BME280;31265;49.680;8.608;2023-12-20T04:35:40;100707.94;;;4.31;100.00
45541;BME280;31265;49.680;8.608;2023-12-20T04:38:09;100719.41;;;4.35;100.00
45541;BME280;31265;49.680;8.608;2023-12-20T04:40:39;100716.19;;;4.31;100.00
45541;BME280;31265;49.680;8.608;2023-12-20T04:43:08;100715.66;;;4.32;100.00
45541;BME280;31265;49.680;8.608;2023-12-20T04:45:36;100714.19;;;4.31;100.00
45541;BME280;31265;49.680;8.608;2023-12-20T04:48:06;100730.38;;;4.35;100.00
45541;BME280;31265;49.680;8.608;2023-12-20T04:50:34;100718.91;;;4.37;100.00
45541;BME280;31265;49.680;8.608;2023-12-20T04:53:06;100731.41;;;4.32;100.00
45541;BME280;31265;49.680;8.608;2023-12-20T04:55:39;100723.69;;;4.30;100.00
45541;BME280;31265;49.680;8.608;2023-12-20T04:58:07;100730.16;;;4.33;100.00
45541;BME280;31265;49.680;8.608;2023-12-20T05:00:36;100739.19;;;4.28;100.00
45541;BME280;31265;49.680;8.608;2023-12-20T05:03:04;100741.41;;;4.29;100.00
45541;BME280;31265;49.680;8.608;2023-12-20T05:05:33;100740.44;;;4.27;100.00
45541;BME280;31265;49.680;8.608;2023-12-20T05:08:02;100738.94;;;4.26;100.00
45541;BME280;31265;49.680;8.608;2023-12-20T05:10:31;100753.19;;;4.24;100.00
45541;BME280;31265;49.680;8.608;2023-12-20T05:13:01;100746.47;;;4.20;100.00
45541;BME280;31265;49.680;8.608;2023-12-20T05:15:30;100752.69;;;4.20;100.00
45541;BME280;31265;49.680;8.608;2023-12-20T05:17:58;100759.69;;;4.21;100.00
45541;BME280;31265;49.680;8.608;2023-12-20T05:20:27;100757.44;;;4.25;100.00
45541;BME280;31265;49.680;8.608;2023-12-20T05:22:55;100756.22;;;4.21;100.00
45541;BME280;31265;49.680;8.608;2023-12-20T05:25:24;100762.94;;;4.20;100.00
45541;BME280;31265;49.680;8.608;2023-12-20T05:27:52;100762.94;;;4.20;100.00
45541;BME280;31265;49.680;8.608;2023-12-20T05:30:22;100761.47;;;4.19;100.00
45541;BME280;31265;49.680;8.608;2023-12-20T05:32:51;100761.69;;;4.21;100.00
45541;BME280;31265;49.680;8.608;2023-12-20T05:35:19;100769.94;;;4.21;100.00
45541;BME280;31265;49.680;8.608;2023-12-20T05:37:49;100781.91;;;4.23;100.00
45541;BME280;31265;49.680;8.608;2023-12-20T05:40:17;100788.91;;;4.19;100.00
45541;BME280;31265;49.680;8.608;2023-12-20T05:42:46;100789.16;;;4.15;100.00
45541;BME280;31265;49.680;8.608;2023-12-20T05:45:15;100795.44;;;4.16;100.00
45541;BME280;31265;49.680;8.608;2023-12-20T05:47:45;100806.19;;;4.14;100.00
45541;BME280;31265;49.680;8.608;2023-12-20T05:50:13;100811.63;;;4.19;100.00
45541;BME280;31265;49.680;8.608;2023-12-20T05:52:42;100822.91;;;4.16;100.00
45541;BME280;31265;49.680;8.608;2023-12-20T05:55:10;100817.41;;;4.16;100.00
45541;BME280;31265;49.680;8.608;2023-12-20T05:57:39;100818.41;;;4.18;100.00
45541;BME280;31265;49.680;8.608;2023-12-20T06:00:08;100817.91;;;4.14;100.00
45541;BME280;31265;49.680;8.608;2023-12-20T06:02:40;100817.41;;;4.10;100.00
45541;BME280;31265;49.680;8.608;2023-12-20T06:05:09;100822.44;;;4.06;100.00
45541;BME280;31265;49.680;8.608;2023-12-20T06:07:38;100826.94;;;3.98;100.00
45541;BME280;31265;49.680;8.608;2023-12-20T06:10:07;100838.19;;;3.83;100.00
45541;BME280;31265;49.680;8.608;2023-12-20T06:12:36;100834.75;;;3.71;100.00
45541;BME280;31265;49.680;8.608;2023-12-20T06:15:05;100831.25;;;3.65;100.00
45541;BME280;31265;49.680;8.608;2023-12-20T06:17:34;100827.03;;;3.64;100.00
45541;BME280;31265;49.680;8.608;2023-12-20T06:20:03;100826.03;;;3.61;100.00
45541;BME280;31265;49.680;8.608;2023-12-20T06:22:38;100820.28;;;3.65;100.00
45541;BME280;31265;49.680;8.608;2023-12-20T06:25:08;100833.00;;;3.68;100.00
45541;BME280;31265;49.680;8.608;2023-12-20T06:27:36;100818.28;;;3.65;100.00
45541;BME280;31265;49.680;8.608;2023-12-20T06:30:05;100826.53;;;3.60;100.00
45541;BME280;31265;49.680;8.608;2023-12-20T06:32:34;100820.06;;;3.52;100.00
45541;BME280;31265;49.680;8.608;2023-12-20T06:35:03;100826.53;;;3.43;100.00
45541;BME280;31265;49.680;8.608;2023-12-20T06:37:32;100831.28;;;3.37;100.00
45541;BME280;31265;49.680;8.608;2023-12-20T06:40:02;100826.03;;;3.33;100.00
45541;BME280;31265;49.680;8.608;2023-12-20T06:42:30;100833.03;;;3.29;100.00
45541;BME280;31265;49.680;8.608;2023-12-20T06:45:06;100832.53;;;3.13;100.00
45541;BME280;31265;49.680;8.608;2023-12-20T06:47:34;100826.28;;;3.01;100.00
45541;BME280;31265;49.680;8.608;2023-12-20T06:50:03;100827.50;;;2.84;100.00
45541;BME280;31265;49.680;8.608;2023-12-20T06:52:32;100838.72;;;2.80;100.00
45541;BME280;31265;49.680;8.608;2023-12-20T06:55:01;100835.22;;;2.74;100.00
45541;BME280;31265;49.680;8.608;2023-12-20T06:57:30;100832.97;;;2.72;100.00
45541;BME280;31265;49.680;8.608;2023-12-20T06:59:58;100833.22;;;2.69;100.00
45541;BME280;31265;49.680;8.608;2023-12-20T07:02:27;100826.72;;;2.61;100.00
45541;BME280;31265;49.680;8.608;2023-12-20T07:04:57;100838.41;;;2.55;100.00
45541;BME280;31265;49.680;8.608;2023-12-20T07:07:26;100851.84;;;2.59;100.00
45541;BME280;31265;49.680;8.608;2023-12-20T07:09:54;100851.09;;;2.53;100.00
45541;BME280;31265;49.680;8.608;2023-12-20T07:12:24;100853.06;;;2.47;100.00
45541;BME280;31265;49.680;8.608;2023-12-20T07:14:52;100838.38;;;2.44;100.00
45541;BME280;31265;49.680;8.608;2023-12-20T07:17:21;100838.84;;;2.37;100.00
45541;BME280;31265;49.680;8.608;2023-12-20T07:19:50;100833.34;;;2.37;100.00
45541;BME280;31265;49.680;8.608;2023-12-20T07:22:18;100841.06;;;2.33;100.00
45541;BME280;31265;49.680;8.608;2023-12-20T07:24:46;100842.56;;;2.34;100.00
45541;BME280;31265;49.680;8.608;2023-12-20T07:27:15;100847.03;;;2.31;100.00
45541;BME280;31265;49.680;8.608;2023-12-20T07:29:45;100856.00;;;2.32;100.00
45541;BME280;31265;49.680;8.608;2023-12-20T07:32:13;100852.03;;;2.33;100.00
45541;BME280;31265;49.680;8.608;2023-12-20T07:34:41;100857.25;;;2.31;100.00
45541;BME280;31265;49.680;8.608;2023-12-20T07:37:10;100856.97;;;2.29;100.00
45541;BME280;31265;49.680;8.608;2023-12-20T07:39:39;100864.94;;;2.32;100.00
45541;BME280;31265;49.680;8.608;2023-12-20T07:42:08;100862.22;;;2.32;100.00
45541;BME280;31265;49.680;8.608;2023-12-20T07:44:37;100869.22;;;2.39;100.00
45541;BME280;31265;49.680;8.608;2023-12-20T07:47:06;100871.75;;;2.48;100.00
45541;BME280;31265;49.680;8.608;2023-12-20T07:49:34;100874.28;;;2.57;100.00
45541;BME280;31265;49.680;8.608;2023-12-20T07:52:04;100873.31;;;2.66;100.00
45541;BME280;31265;49.680;8.608;2023-12-20T07:54:33;100877.06;;;2.69;100.00
45541;BME280;31265;49.680;8.608;2023-12-20T07:57:01;100881.78;;;2.74;100.00
45541;BME280;31265;49.680;8.608;2023-12-20T07:59:29;100886.31;;;2.77;100.00
45541;BME280;31265;49.680;8.608;2023-12-20T08:01:59;100878.84;;;2.83;100.00
45541;BME280;31265;49.680;8.608;2023-12-20T08:04:29;100873.88;;;2.87;100.00
45541;BME280;31265;49.680;8.608;2023-12-20T08:06:57;100882.38;;;2.95;100.00
45541;BME280;31265;49.680;8.608;2023-12-20T08:09:25;100889.34;;;3.01;100.00
45541;BME280;31265;49.680;8.608;2023-12-20T08:11:54;100892.84;;;3.02;100.00
45541;BME280;31265;49.680;8.608;2023-12-20T08:14:22;100883.63;;;2.99;100.00
45541;BME280;31265;49.680;8.608;2023-12-20T08:16:51;100883.38;;;2.97;100.00
45541;BME280;31265;49.680;8.608;2023-12-20T08:19:19;100887.31;;;2.91;100.00
45541;BME280;31265;49.680;8.608;2023-12-20T08:21:49;100885.59;;;2.88;100.00
45541;BME280;31265;49.680;8.608;2023-12-20T08:24:17;100894.03;;;2.84;100.00
45541;BME280;31265;49.680;8.608;2023-12-20T08:26:45;100892.53;;;2.83;100.00
45541;BME280;31265;49.680;8.608;2023-12-20T08:29:14;100891.06;;;2.88;100.00
45541;BME280;31265;49.680;8.608;2023-12-20T08:31:43;100893.06;;;2.87;100.00
45541;BME280;31265;49.680;8.608;2023-12-20T08:34:12;100899.81;;;2.97;100.00
45541;BME280;31265;49.680;8.608;2023-12-20T08:36:42;100901.03;;;2.96;100.00
45541;BME280;31265;49.680;8.608;2023-12-20T08:39:12;100908.53;;;3.01;100.00
45541;BME280;31265;49.680;8.608;2023-12-20T08:41:56;100907.31;;;3.08;100.00
45541;BME280;31265;49.680;8.608;2023-12-20T08:44:24;100908.03;;;3.09;100.00
45541;BME280;31265;49.680;8.608;2023-12-20T08:46:52;100912.56;;;3.12;100.00
45541;BME280;31265;49.680;8.608;2023-12-20T08:49:24;100911.03;;;3.11;100.00
45541;BME280;31265;49.680;8.608;2023-12-20T08:51:52;100901.59;;;3.12;100.00
45541;BME280;31265;49.680;8.608;2023-12-20T08:54:21;100916.81;;;3.24;100.00
45541;BME280;31265;49.680;8.608;2023-12-20T08:56:49;100920.56;;;3.43;100.00
45541;BME280;31265;49.680;8.608;2023-12-20T08:59:19;100919.31;;;3.56;100.00
45541;BME280;31265;49.680;8.608;2023-12-20T09:01:48;100922.31;;;3.75;100.00
45541;BME280;31265;49.680;8.608;2023-12-20T09:04:21;100916.06;;;3.85;100.00
45541;BME280;31265;49.680;8.608;2023-12-20T09:06:50;100918.81;;;3.85;100.00
45541;BME280;31265;49.680;8.608;2023-12-20T09:09:19;100916.31;;;3.87;100.00
45541;BME280;31265;49.680;8.608;2023-12-20T09:11:48;100920.06;;;3.96;100.00
45541;BME280;31265;49.680;8.608;2023-12-20T09:14:19;100916.56;;;4.01;100.00
45541;BME280;31265;49.680;8.608;2023-12-20T09:16:47;100915.06;;;4.00;100.00
45541;BME280;31265;49.680;8.608;2023-12-20T09:19:18;100906.81;;;4.05;100.00
45541;BME280;31265;49.680;8.608;2023-12-20T09:21:46;100917.28;;;4.13;100.00
45541;BME280;31265;49.680;8.608;2023-12-20T09:24:14;100918.50;;;4.28;100.00
45541;BME280;31265;49.680;8.608;2023-12-20T09:26:43;100913.97;;;4.37;100.00
45541;BME280;31265;49.680;8.608;2023-12-20T09:29:11;100920.19;;;4.48;100.00
45541;BME280;31265;49.680;8.608;2023-12-20T09:31:43;100925.69;;;4.48;100.00
45541;BME280;31265;49.680;8.608;2023-12-20T09:34:15;100927.13;;;4.61;100.00
45541;BME280;31265;49.680;8.608;2023-12-20T09:36:44;100925.59;;;4.71;100.00
45541;BME280;31265;49.680;8.608;2023-12-20T09:39:14;100916.84;;;4.67;100.00
45541;BME280;31265;49.680;8.608;2023-12-20T09:41:44;100918.38;;;4.62;100.00
45541;BME280;31265;49.680;8.608;2023-12-20T09:44:15;100912.56;;;4.77;100.00
45541;BME280;31265;49.680;8.608;2023-12-20T09:46:49;100905.78;;;4.84;100.00
45541;BME280;31265;49.680;8.608;2023-12-20T09:49:18;100912.31;;;4.81;100.00
45541;BME280;31265;49.680;8.608;2023-12-20T09:51:47;100912.97;;;4.98;100.00
45541;BME280;31265;49.680;8.608;2023-12-20T09:54:17;100907.91;;;5.08;100.00
45541;BME280;31265;49.680;8.608;2023-12-20T09:56:45;100908.09;;;5.15;100.00
45541;BME280;31265;49.680;8.608;2023-12-20T09:59:14;100913.75;;;5.29;100.00
45541;BME280;31265;49.680;8.608;2023-12-20T10:01:42;100912.22;;;5.33;100.00
45541;BME280;31265;49.680;8.608;2023-12-20T10:04:13;100911.97;;;5.37;100.00
45541;BME280;31265;49.680;8.608;2023-12-20T10:06:56;100900.41;;;5.44;100.00
45541;BME280;31265;49.680;8.608;2023-12-20T10:09:25;100911.69;;;5.41;100.00
45541;BME280;31265;49.680;8.608;2023-12-20T10:11:56;100910.41;;;5.47;100.00
45541;BME280;31265;49.680;8.608;2023-12-20T10:14:24;100902.38;;;5.49;100.00
45541;BME280;31265;49.680;8.608;2023-12-20T10:16:52;100892.53;;;5.59;100.00
45541;BME280;31265;49.680;8.608;2023-12-20T10:19:23;100888.78;;;5.57;100.00
45541;BME280;31265;49.680;8.608;2023-12-20T10:21:52;100890.81;;;5.56;100.00
45541;BME280;31265;49.680;8.608;2023-12-20T10:24:20;100890.50;;;5.60;100.00
45541;BME280;31265;49.680;8.608;2023-12-20T10:27:01;100892.34;;;5.52;100.00
45541;BME280;31265;49.680;8.608;2023-12-20T10:29:32;100877.81;;;5.51;100.00
45541;BME280;31265;49.680;8.608;2023-12-20T10:32:23;100878.59;;;5.52;100.00
45541;BME280;31265;49.680;8.608;2023-12-20T10:34:54;100881.28;;;5.57;100.00
45541;BME280;31265;49.680;8.608;2023-12-20T10:37:23;100878.75;;;5.59;100.00
45541;BME280;31265;49.680;8.608;2023-12-20T10:39:53;100870.22;;;5.63;100.00
45541;BME280;31265;49.680;8.608;2023-12-20T10:42:26;100863.41;;;5.70;100.00
45541;BME280;31265;49.680;8.608;2023-12-20T10:44:54;100870.34;;;5.76;100.00
45541;BME280;31265;49.680;8.608;2023-12-20T10:47:24;100875.69;;;5.69;100.00
45541;BME280;31265;49.680;8.608;2023-12-20T10:49:55;100864.56;;;5.80;100.00
45541;BME280;31265;49.680;8.608;2023-12-20T10:52:24;100872.81;;;5.80;100.00
45541;BME280;31265;49.680;8.608;2023-12-20T10:54:54;100862.75;;;5.58;100.00
45541;BME280;31265;49.680;8.608;2023-12-20T10:57:25;100862.25;;;5.59;100.00
45541;BME280;31265;49.680;8.608;2023-12-20T10:59:56;100864.63;;;5.74;100.00
45541;BME280;31265;49.680;8.608;2023-12-20T11:02:29;100860.59;;;5.75;100.00
45541;BME280;31265;49.680;8.608;2023-12-20T11:05:07;100858.06;;;5.77;100.00
45541;BME280;31265;49.680;8.608;2023-12-20T11:07:43;100856.06;;;5.78;100.00
45541;BME280;31265;49.680;8.608;2023-12-20T11:10:19;100842.06;;;5.76;100.00
45541;BME280;31265;49.680;8.608;2023-12-20T11:12:52;100847.94;;;5.91;100.00
45541;BME280;31265;49.680;8.608;2023-12-20T11:15:22;100844.19;;;5.89;100.00
45541;BME280;31265;49.680;8.608;2023-12-20T11:17:54;100838.22;;;5.85;100.00
45541;BME280;31265;49.680;8.608;2023-12-20T11:20:35;100836.56;;;6.00;100.00
45541;BME280;31265;49.680;8.608;2023-12-20T11:23:05;100835.31;;;6.01;100.00
45541;BME280;31265;49.680;8.608;2023-12-20T11:25:46;100833.81;;;6.00;100.00
45541;BME280;31265;49.680;8.608;2023-12-20T11:28:17;100824.72;;;6.06;100.00
45541;BME280;31265;49.680;8.608;2023-12-20T11:30:50;100826.97;;;6.07;100.00
45541;BME280;31265;49.680;8.608;2023-12-20T11:33:21;100824.72;;;6.06;100.00
45541;BME280;31265;49.680;8.608;2023-12-20T11:35:57;100820.97;;;6.09;100.00
45541;BME280;31265;49.680;8.608;2023-12-20T11:38:26;100813.13;;;6.13;100.00
45541;BME280;31265;49.680;8.608;2023-12-20T11:40:55;100819.91;;;6.12;100.00
45541;BME280;31265;49.680;8.608;2023-12-20T11:43:34;100823.13;;;6.16;100.00
45541;BME280;31265;49.680;8.608;2023-12-20T11:46:06;100823.41;;;6.12;100.00
45541;BME280;31265;49.680;8.608;2023-12-20T11:48:37;100825.19;;;6.10;100.00
45541;BME280;31265;49.680;8.608;2023-12-20T11:51:12;100826.00;;;6.05;100.00
45541;BME280;31265;49.680;8.608;2023-12-20T11:53:41;100820.44;;;6.10;100.00
45541;BME280;31265;49.680;8.608;2023-12-20T11:56:11;100819.47;;;6.08;100.00
45541;BME280;31265;49.680;8.608;2023-12-20T11:58:39;100816.94;;;6.10;100.00
45541;BME280;31265;49.680;8.608;2023-12-20T12:01:08;100817.91;;;6.12;100.00
45541;BME280;31265;49.680;8.608;2023-12-20T12:03:36;100812.75;;;6.03;100.00
45541;BME280;31265;49.680;8.608;2023-12-20T12:06:05;100823.03;;;6.02;100.00
45541;BME280;31265;49.680;8.608;2023-12-20T12:08:36;100820.38;;;6.16;100.00
45541;BME280;31265;49.680;8.608;2023-12-20T12:11:05;100817.41;;;6.14;100.00
45541;BME280;31265;49.680;8.608;2023-12-20T12:13:34;100814.25;;;6.04;100.00
45541;BME280;31265;49.680;8.608;2023-12-20T12:16:03;100818.09;;;5.95;100.00
45541;BME280;31265;49.680;8.608;2023-12-20T12:18:32;100822.78;;;6.00;100.00
45541;BME280;31265;49.680;8.608;2023-12-20T12:21:01;100807.13;;;5.90;100.00
45541;BME280;31265;49.680;8.608;2023-12-20T12:23:40;100812.13;;;5.91;100.00
45541;BME280;31265;49.680;8.608;2023-12-20T12:26:09;100817.63;;;5.91;100.00
45541;BME280;31265;49.680;8.608;2023-12-20T12:28:40;100813.84;;;5.94;100.00
45541;BME280;31265;49.680;8.608;2023-12-20T12:31:08;100814.09;;;5.96;100.00
45541;BME280;31265;49.680;8.608;2023-12-20T12:33:41;100813.13;;;5.88;100.00
45541;BME280;31265;49.680;8.608;2023-12-20T12:36:12;100807.84;;;5.90;100.00
45541;BME280;31265;49.680;8.608;2023-12-20T12:38:44;100808.81;;;5.98;100.00
45541;BME280;31265;49.680;8.608;2023-12-20T12:41:12;100803.47;;;6.06;100.00
45541;BME280;31265;49.680;8.608;2023-12-20T12:43:42;100805.00;;;6.01;100.00
45541;BME280;31265;49.680;8.608;2023-12-20T12:46:10;100817.34;;;5.95;100.00
45541;BME280;31265;49.680;8.608;2023-12-20T12:48:39;100812.16;;;5.86;100.00
45541;BME280;31265;49.680;8.608;2023-12-20T12:51:11;100811.34;;;5.96;100.00
45541;BME280;31265;49.680;8.608;2023-12-20T12:53:44;100805.91;;;5.85;100.00
45541;BME280;31265;49.680;8.608;2023-12-20T12:56:15;100800.81;;;5.95;100.00
45541;BME280;31265;49.680;8.608;2023-12-20T12:58:44;100790.44;;;5.82;100.00
45541;BME280;31265;49.680;8.608;2023-12-20T13:01:13;100782.16;;;5.82;100.00